Time;durP1;ratioP1;P1;durP2;ratioP2;P2;SDS_P1;SDS_P2;PMS_P1;PMS_P2;Temp;Humidity;BMP_temperature;BMP_pressure;BME280_temperature;BME280_humidity;BME280_pressure;Samples;Min_cycle;Max_cycle;Signal;HPM_P1;HPM_P2
2023/07/06 00:02:00;;;;;;;;;;;23.80;68.40;;;;;;5082754;28;19920;-36
2023/07/06 00:04:26;;;;;;;;;;;23.90;68.80;;;;;;5083039;28;20288;-37
2023/07/06 00:06:52;;;;;;;;;;;23.80;68.90;;;;;;5082912;28;19943;-36
2023/07/06 00:09:18;;;;;;;;;;;23.80;68.90;;;;;;5083100;28;19919;-37
2023/07/06 00:11:44;;;;;;;;;;;23.80;68.20;;;;;;5082662;28;19912;-36
2023/07/06 00:14:11;;;;;;;;;;;23.80;67.70;;;;;;5082862;28;19919;-36
2023/07/06 00:16:41;;;;;;;;;;;23.80;68.30;;;;;;5084287;28;19915;-37
2023/07/06 00:19:08;;;;;;;;;;;23.90;69.10;;;;;;5082735;28;20329;-36
2023/07/06 00:21:34;;;;;;;;;;;23.80;69.20;;;;;;5082434;28;19908;-37
2023/07/06 00:24:00;;;;;;;;;;;23.80;69.20;;;;;;5082708;28;19912;-36
2023/07/06 00:26:26;;;;;;;;;;;23.90;69.60;;;;;;5082832;28;19915;-36
2023/07/06 00:28:53;;;;;;;;;;;23.90;69.80;;;;;;5085101;28;20058;-36
2023/07/06 00:31:32;;;;;;;;;;;23.90;70.00;;;;;;5082192;28;19920;-36
2023/07/06 00:34:04;;;;;;;;;;;23.90;70.10;;;;;;5082440;28;19920;-37
2023/07/06 00:36:30;;;;;;;;;;;23.90;69.80;;;;;;5082432;28;20376;-38
2023/07/06 00:38:56;;;;;;;;;;;23.90;68.90;;;;;;5063830;28;19935;-36
2023/07/06 00:41:22;;;;;;;;;;;23.90;68.60;;;;;;5082423;28;19934;-36
2023/07/06 00:43:49;;;;;;;;;;;23.90;68.80;;;;;;5082525;28;19979;-36
2023/07/06 00:46:15;;;;;;;;;;;23.90;69.40;;;;;;5082517;28;19913;-36
2023/07/06 00:48:44;;;;;;;;;;;23.90;69.60;;;;;;5082909;28;19919;-36
2023/07/06 00:51:09;;;;;;;;;;;23.90;69.70;;;;;;5082590;28;19920;-36
2023/07/06 00:53:37;;;;;;;;;;;23.90;70.00;;;;;;5082085;28;19920;-36
2023/07/06 00:56:03;;;;;;;;;;;24.00;70.20;;;;;;5082439;28;19912;-36
2023/07/06 00:58:30;;;;;;;;;;;23.90;70.40;;;;;;5098103;28;19924;-36
2023/07/06 01:00:57;;;;;;;;;;;23.90;70.40;;;;;;5066286;28;19990;-37
2023/07/06 01:03:26;;;;;;;;;;;23.90;70.50;;;;;;5086597;28;19982;-37
2023/07/06 01:05:53;;;;;;;;;;;23.90;70.60;;;;;;5086605;28;20007;-36
2023/07/06 01:08:19;;;;;;;;;;;24.00;71.30;;;;;;5068457;28;19917;-36
2023/07/06 01:10:45;;;;;;;;;;;24.00;70.30;;;;;;5086227;28;19919;-37
2023/07/06 01:13:11;;;;;;;;;;;24.00;69.00;;;;;;5084755;28;20719;-36
2023/07/06 01:15:43;;;;;;;;;;;23.90;68.30;;;;;;5086694;28;19933;-36
2023/07/06 01:18:18;;;;;;;;;;;23.90;68.10;;;;;;5086317;28;19999;-37
2023/07/06 01:21:09;;;;;;;;;;;24.00;68.90;;;;;;5086462;28;19912;-36
2023/07/06 01:23:53;;;;;;;;;;;24.00;69.30;;;;;;5081379;28;20249;-36
2023/07/06 01:26:38;;;;;;;;;;;23.90;69.40;;;;;;5086343;28;19972;-36
2023/07/06 01:29:07;;;;;;;;;;;24.00;69.80;;;;;;5086194;28;19912;-36
2023/07/06 01:31:36;;;;;;;;;;;23.90;70.10;;;;;;5086025;28;19920;-36
2023/07/06 01:34:05;;;;;;;;;;;24.00;70.50;;;;;;5085818;28;20003;-36
2023/07/06 01:36:42;;;;;;;;;;;24.00;70.70;;;;;;5085890;28;19916;-36
2023/07/06 01:39:14;;;;;;;;;;;24.00;70.90;;;;;;5085920;28;19984;-37
2023/07/06 01:41:40;;;;;;;;;;;24.00;70.90;;;;;;5086064;28;19935;-36
2023/07/06 01:44:10;;;;;;;;;;;24.00;71.00;;;;;;5085078;28;19912;-36
2023/07/06 01:46:35;;;;;;;;;;;24.00;71.20;;;;;;5085922;28;19913;-36
2023/07/06 01:49:05;;;;;;;;;;;24.00;71.20;;;;;;5085735;28;19957;-36
2023/07/06 01:51:36;;;;;;;;;;;24.00;71.30;;;;;;5086385;28;19919;-36
2023/07/06 01:54:06;;;;;;;;;;;24.00;71.30;;;;;;5100119;28;20014;-36
2023/07/06 01:56:40;;;;;;;;;;;24.00;71.40;;;;;;5085887;28;19966;-36
2023/07/06 01:59:07;;;;;;;;;;;24.00;71.40;;;;;;5085462;28;20387;-36
2023/07/06 02:01:40;;;;;;;;;;;24.00;71.60;;;;;;5101324;28;19912;-36
2023/07/06 02:04:07;;;;;;;;;;;24.00;71.70;;;;;;5100858;28;19912;-36
2023/07/06 02:06:33;;;;;;;;;;;24.00;71.90;;;;;;5085499;28;19948;-36
2023/07/06 02:08:59;;;;;;;;;;;24.10;72.10;;;;;;5084957;28;19912;-36
2023/07/06 02:11:25;;;;;;;;;;;24.00;72.20;;;;;;5084626;28;20561;-36
2023/07/06 02:13:51;;;;;;;;;;;24.00;72.30;;;;;;5084142;28;19920;-36
2023/07/06 02:16:17;;;;;;;;;;;24.00;72.10;;;;;;5090173;28;19912;-36
2023/07/06 02:18:44;;;;;;;;;;;24.00;72.20;;;;;;5088958;28;20581;-36
2023/07/06 02:21:10;;;;;;;;;;;24.00;72.10;;;;;;5086389;28;19908;-36
2023/07/06 02:23:36;;;;;;;;;;;24.10;72.30;;;;;;5089739;28;19919;-36
2023/07/06 02:26:02;;;;;;;;;;;24.00;72.20;;;;;;5085028;28;19947;-36
2023/07/06 02:28:28;;;;;;;;;;;24.10;72.30;;;;;;5085327;28;19974;-36
2023/07/06 02:30:54;;;;;;;;;;;24.10;72.30;;;;;;5085382;28;19908;-36
2023/07/06 02:33:21;;;;;;;;;;;24.10;72.30;;;;;;5084335;28;19920;-36
2023/07/06 02:35:46;;;;;;;;;;;24.10;72.30;;;;;;5085351;28;19931;-36
2023/07/06 02:38:17;;;;;;;;;;;24.10;72.50;;;;;;5074423;28;19917;-36
2023/07/06 02:40:46;;;;;;;;;;;24.10;72.80;;;;;;5100322;28;20715;-37
2023/07/06 02:43:12;;;;;;;;;;;24.10;73.10;;;;;;5080481;28;19920;-36
2023/07/06 02:45:38;;;;;;;;;;;24.10;73.30;;;;;;5076878;28;19983;-36
2023/07/06 02:48:04;;;;;;;;;;;24.10;73.50;;;;;;5065652;28;19940;-36
2023/07/06 02:50:30;;;;;;;;;;;24.10;73.50;;;;;;5084069;28;19908;-36
2023/07/06 02:52:58;;;;;;;;;;;24.10;73.60;;;;;;5083241;28;19951;-37
2023/07/06 02:55:26;;;;;;;;;;;24.10;73.60;;;;;;5083616;28;19916;-36
2023/07/06 02:57:52;;;;;;;;;;;24.10;73.60;;;;;;5082343;28;19904;-36
2023/07/06 03:00:18;;;;;;;;;;;24.10;73.50;;;;;;5084528;28;20322;-36
2023/07/06 03:02:44;;;;;;;;;;;24.10;73.30;;;;;;5083099;28;19915;-37
2023/07/06 03:05:11;;;;;;;;;;;24.10;73.30;;;;;;5075584;28;19915;-37
2023/07/06 03:07:40;;;;;;;;;;;24.10;73.10;;;;;;5084367;28;19904;-36
2023/07/06 03:10:07;;;;;;;;;;;24.10;73.00;;;;;;5084137;28;19920;-36
2023/07/06 03:12:36;;;;;;;;;;;24.10;72.80;;;;;;5083832;28;19916;-36
2023/07/06 03:15:15;;;;;;;;;;;24.10;72.80;;;;;;5067260;28;19913;-37
2023/07/06 03:17:41;;;;;;;;;;;24.10;72.70;;;;;;5084671;28;19909;-37
2023/07/06 03:20:14;;;;;;;;;;;24.10;72.90;;;;;;5083564;28;19915;-36
2023/07/06 03:22:51;;;;;;;;;;;24.10;73.00;;;;;;5083153;28;19912;-36
2023/07/06 03:25:26;;;;;;;;;;;24.10;73.40;;;;;;5083693;28;19912;-36
2023/07/06 03:27:52;;;;;;;;;;;24.10;73.50;;;;;;5083965;28;19911;-36
2023/07/06 03:30:19;;;;;;;;;;;24.10;73.70;;;;;;5083227;28;19916;-36
2023/07/06 03:33:05;;;;;;;;;;;24.10;73.70;;;;;;5015288;28;19925;-36
2023/07/06 03:35:33;;;;;;;;;;;24.10;73.80;;;;;;5005127;28;19914;-37
2023/07/06 03:37:58;;;;;;;;;;;24.10;73.80;;;;;;5001421;28;19937;-36
2023/07/06 03:40:26;;;;;;;;;;;24.10;73.80;;;;;;5002024;28;20005;-36
2023/07/06 03:42:54;;;;;;;;;;;24.10;73.70;;;;;;5000782;28;20391;-36
2023/07/06 03:45:20;;;;;;;;;;;24.10;73.50;;;;;;5001791;28;19910;-35
2023/07/06 03:47:49;;;;;;;;;;;24.10;73.40;;;;;;5001417;28;19937;-36
2023/07/06 03:50:16;;;;;;;;;;;24.10;73.20;;;;;;5001709;28;19914;-36
2023/07/06 03:52:42;;;;;;;;;;;24.10;73.10;;;;;;4984911;28;19994;-36
2023/07/06 03:55:12;;;;;;;;;;;24.10;73.00;;;;;;5001124;28;19926;-36
2023/07/06 03:57:39;;;;;;;;;;;24.10;72.90;;;;;;5004408;28;20812;-36
2023/07/06 04:00:19;;;;;;;;;;;24.10;72.80;;;;;;5001786;28;19947;-36
2023/07/06 04:02:52;;;;;;;;;;;24.10;72.90;;;;;;5001385;28;19984;-37
2023/07/06 04:05:19;;;;;;;;;;;24.10;73.10;;;;;;5001180;28;19914;-36
2023/07/06 04:07:52;;;;;;;;;;;24.10;73.40;;;;;;5001131;28;19936;-36
2023/07/06 04:10:19;;;;;;;;;;;24.10;73.80;;;;;;5039288;28;19942;-36
2023/07/06 04:12:45;;;;;;;;;;;24.10;73.80;;;;;;5082336;28;19955;-35
2023/07/06 04:15:10;;;;;;;;;;;24.10;73.80;;;;;;5082249;28;19909;-36
2023/07/06 04:17:36;;;;;;;;;;;24.10;73.90;;;;;;5083068;28;19912;-36
2023/07/06 04:20:18;;;;;;;;;;;24.10;73.90;;;;;;5082636;28;20395;-36
2023/07/06 04:22:47;;;;;;;;;;;24.10;74.00;;;;;;5083330;28;19940;-36
2023/07/06 04:25:15;;;;;;;;;;;24.10;73.80;;;;;;5082061;28;19946;-36
2023/07/06 04:27:42;;;;;;;;;;;24.10;73.70;;;;;;5090479;28;19915;-36
2023/07/06 04:30:11;;;;;;;;;;;24.10;74.10;;;;;;5082973;28;19916;-37
2023/07/06 04:32:36;;;;;;;;;;;24.10;73.30;;;;;;5082316;28;19926;-36
2023/07/06 04:35:03;;;;;;;;;;;24.10;73.00;;;;;;5080664;28;19913;-36
2023/07/06 04:37:31;;;;;;;;;;;24.10;73.00;;;;;;5082458;28;19922;-36
2023/07/06 04:39:57;;;;;;;;;;;24.10;72.90;;;;;;5064372;28;19912;-36
2023/07/06 04:42:27;;;;;;;;;;;24.10;72.80;;;;;;5082129;28;20660;-36
2023/07/06 04:44:54;;;;;;;;;;;24.10;72.90;;;;;;5081755;28;19934;-36
2023/07/06 04:47:23;;;;;;;;;;;24.10;73.10;;;;;;5081778;28;19908;-36
2023/07/06 04:49:50;;;;;;;;;;;24.10;73.50;;;;;;5083083;28;19998;-36
2023/07/06 04:52:16;;;;;;;;;;;24.10;73.50;;;;;;5081688;28;19916;-36
2023/07/06 04:54:42;;;;;;;;;;;24.10;73.60;;;;;;5082394;28;19955;-36
2023/07/06 04:57:09;;;;;;;;;;;24.10;73.60;;;;;;5082583;28;19908;-36
2023/07/06 04:59:35;;;;;;;;;;;24.10;73.80;;;;;;5082874;28;20338;-37
2023/07/06 05:02:02;;;;;;;;;;;24.10;73.70;;;;;;5082319;28;19983;-36
2023/07/06 05:04:30;;;;;;;;;;;24.10;73.90;;;;;;5082512;28;19912;-36
2023/07/06 05:06:56;;;;;;;;;;;24.10;73.90;;;;;;5082001;28;19915;-36
2023/07/06 05:09:24;;;;;;;;;;;24.00;73.60;;;;;;5082479;28;19913;-36
2023/07/06 05:11:52;;;;;;;;;;;24.10;73.60;;;;;;5082062;28;20353;-36
2023/07/06 05:14:19;;;;;;;;;;;24.10;73.30;;;;;;5074808;28;19984;-36
2023/07/06 05:16:45;;;;;;;;;;;24.10;73.20;;;;;;5078792;28;19920;-36
2023/07/06 05:19:11;;;;;;;;;;;24.10;73.20;;;;;;5082411;28;19912;-36
2023/07/06 05:21:38;;;;;;;;;;;24.10;73.90;;;;;;5082481;28;19913;-36
2023/07/06 05:24:04;;;;;;;;;;;24.00;73.00;;;;;;5081926;28;19908;-36
2023/07/06 05:26:30;;;;;;;;;;;24.10;73.10;;;;;;5084102;28;20423;-36
2023/07/06 05:28:55;;;;;;;;;;;24.00;73.20;;;;;;5082375;28;19930;-36
2023/07/06 05:31:21;;;;;;;;;;;24.00;73.40;;;;;;5082007;28;19923;-36
2023/07/06 05:33:47;;;;;;;;;;;24.00;73.50;;;;;;5081546;28;19920;-37
2023/07/06 05:36:13;;;;;;;;;;;24.00;73.60;;;;;;5081994;28;20023;-36
2023/07/06 05:38:39;;;;;;;;;;;24.00;73.70;;;;;;5082185;28;19979;-36
2023/07/06 05:41:05;;;;;;;;;;;24.00;73.60;;;;;;5064294;28;19912;-36
2023/07/06 05:43:31;;;;;;;;;;;24.00;73.90;;;;;;5082028;28;19939;-36
2023/07/06 05:45:57;;;;;;;;;;;24.00;73.70;;;;;;5081202;28;19912;-36
2023/07/06 05:48:22;;;;;;;;;;;24.00;73.70;;;;;;5086006;28;19930;-36
2023/07/06 05:50:48;;;;;;;;;;;24.00;73.60;;;;;;5088261;28;19916;-36
2023/07/06 05:53:14;;;;;;;;;;;24.00;73.50;;;;;;5085165;28;19920;-36
2023/07/06 05:55:43;;;;;;;;;;;24.00;73.50;;;;;;5085333;28;19912;-36
2023/07/06 05:58:13;;;;;;;;;;;24.00;73.40;;;;;;5085746;28;20015;-36
2023/07/06 06:00:39;;;;;;;;;;;24.00;73.40;;;;;;5085895;28;20443;-36
2023/07/06 06:03:05;;;;;;;;;;;24.00;73.30;;;;;;5085512;28;21371;-36
2023/07/06 06:05:33;;;;;;;;;;;24.00;73.30;;;;;;5067603;28;19954;-36
2023/07/06 06:08:01;;;;;;;;;;;24.00;73.30;;;;;;5085209;28;19917;-37
2023/07/06 06:10:28;;;;;;;;;;;24.00;73.40;;;;;;5085559;28;19916;-36
2023/07/06 06:12:54;;;;;;;;;;;24.00;73.60;;;;;;5085129;28;19939;-36
2023/07/06 06:15:20;;;;;;;;;;;24.00;73.80;;;;;;5085235;28;20462;-36
2023/07/06 06:17:47;;;;;;;;;;;24.00;74.40;;;;;;5087180;28;19914;-36
2023/07/06 06:20:13;;;;;;;;;;;24.00;74.00;;;;;;5085367;28;19952;-36
2023/07/06 06:22:42;;;;;;;;;;;24.00;73.80;;;;;;5085250;28;19912;-36
2023/07/06 06:25:08;;;;;;;;;;;24.00;73.90;;;;;;5085253;28;19942;-36
2023/07/06 06:27:34;;;;;;;;;;;24.00;74.00;;;;;;5084714;28;19958;-37
2023/07/06 06:30:00;;;;;;;;;;;24.00;74.10;;;;;;5084626;28;19991;-36
2023/07/06 06:32:26;;;;;;;;;;;24.00;74.00;;;;;;5085056;28;19924;-36
2023/07/06 06:34:52;;;;;;;;;;;24.00;73.90;;;;;;5085004;28;19912;-36
2023/07/06 06:37:18;;;;;;;;;;;24.00;73.80;;;;;;5081091;28;20139;-36
2023/07/06 06:39:44;;;;;;;;;;;24.00;73.70;;;;;;5084552;28;19912;-36
2023/07/06 06:42:13;;;;;;;;;;;24.00;73.60;;;;;;5085185;28;19913;-36
2023/07/06 06:44:39;;;;;;;;;;;24.00;73.60;;;;;;5067649;28;19927;-36
2023/07/06 06:47:05;;;;;;;;;;;23.90;73.60;;;;;;5084373;28;19912;-36
2023/07/06 06:49:33;;;;;;;;;;;23.90;73.50;;;;;;5084964;28;19912;-36
2023/07/06 06:52:01;;;;;;;;;;;23.90;73.50;;;;;;5084084;28;19923;-36
2023/07/06 06:54:28;;;;;;;;;;;23.90;73.60;;;;;;5084807;28;20015;-36
2023/07/06 06:56:53;;;;;;;;;;;24.00;73.80;;;;;;5084195;28;20011;-36
2023/07/06 06:59:19;;;;;;;;;;;23.90;73.80;;;;;;5084332;28;19955;-36
2023/07/06 07:01:46;;;;;;;;;;;23.90;73.90;;;;;;5084390;28;19920;-37
2023/07/06 07:04:12;;;;;;;;;;;23.90;73.90;;;;;;5084463;28;20337;-36
2023/07/06 07:06:38;;;;;;;;;;;23.90;73.90;;;;;;5084281;28;19931;-36
2023/07/06 07:09:04;;;;;;;;;;;23.90;74.00;;;;;;5083672;28;19914;-36
2023/07/06 07:11:30;;;;;;;;;;;23.90;74.00;;;;;;5084305;28;19984;-36
2023/07/06 07:13:56;;;;;;;;;;;23.90;74.70;;;;;;5083999;28;19920;-36
2023/07/06 07:16:23;;;;;;;;;;;23.90;73.80;;;;;;5084074;28;19909;-36
2023/07/06 07:18:49;;;;;;;;;;;23.90;73.80;;;;;;5084068;28;19908;-36
2023/07/06 07:21:15;;;;;;;;;;;23.90;73.70;;;;;;5084277;28;19912;-36
2023/07/06 07:23:41;;;;;;;;;;;23.90;73.70;;;;;;5084291;28;19942;-36
2023/07/06 07:26:10;;;;;;;;;;;23.90;73.60;;;;;;5083654;28;19981;-36
2023/07/06 07:28:37;;;;;;;;;;;23.90;73.70;;;;;;5083950;28;19912;-36
2023/07/06 07:31:03;;;;;;;;;;;23.90;73.60;;;;;;5084986;28;19920;-36
2023/07/06 07:33:29;;;;;;;;;;;23.90;73.70;;;;;;5083974;28;19927;-36
2023/07/06 07:38:40;;;;;;;;;;;23.90;73.90;;;;;;5083853;28;19918;-37
2023/07/06 07:41:06;;;;;;;;;;;23.90;73.80;;;;;;5083857;28;19959;-36
2023/07/06 07:43:33;;;;;;;;;;;23.80;73.90;;;;;;5084179;28;19919;-36
2023/07/06 07:46:03;;;;;;;;;;;23.80;73.90;;;;;;5083630;28;20438;-36
2023/07/06 07:48:30;;;;;;;;;;;23.80;73.90;;;;;;5083619;28;19956;-36
2023/07/06 07:50:56;;;;;;;;;;;23.80;73.90;;;;;;5085437;28;20307;-35
2023/07/06 07:53:24;;;;;;;;;;;23.80;74.00;;;;;;5083605;28;19987;-37
2023/07/06 07:55:50;;;;;;;;;;;23.80;74.00;;;;;;5083084;28;19910;-36
2023/07/06 07:58:16;;;;;;;;;;;23.90;74.00;;;;;;5075026;28;19972;-36
2023/07/06 08:00:51;;;;;;;;;;;23.80;73.90;;;;;;5083670;28;19908;-36
2023/07/06 08:03:17;;;;;;;;;;;23.80;73.80;;;;;;5075965;28;19919;-36
2023/07/06 08:05:43;;;;;;;;;;;23.80;73.80;;;;;;5083202;28;20348;-36
2023/07/06 08:08:11;;;;;;;;;;;23.80;73.70;;;;;;5082877;28;19923;-36
2023/07/06 08:10:40;;;;;;;;;;;23.80;73.70;;;;;;5074148;28;19912;-36
2023/07/06 08:13:09;;;;;;;;;;;23.80;73.80;;;;;;5083056;28;19950;-36
2023/07/06 08:15:38;;;;;;;;;;;23.80;73.80;;;;;;5090569;28;19915;-36
2023/07/06 08:18:07;;;;;;;;;;;23.80;73.90;;;;;;5082324;28;20474;-36
2023/07/06 08:20:33;;;;;;;;;;;23.80;73.90;;;;;;5083260;28;19991;-36
2023/07/06 08:23:01;;;;;;;;;;;23.80;74.00;;;;;;5082845;28;19920;-36
2023/07/06 08:25:28;;;;;;;;;;;23.80;74.00;;;;;;5083209;28;20011;-36
2023/07/06 08:27:56;;;;;;;;;;;23.80;74.10;;;;;;5082604;28;19934;-36
2023/07/06 08:30:22;;;;;;;;;;;23.80;74.30;;;;;;5081597;28;19912;-36
2023/07/06 08:32:48;;;;;;;;;;;23.80;74.10;;;;;;5082017;28;19978;-36
2023/07/06 08:35:17;;;;;;;;;;;23.80;74.30;;;;;;5087718;28;19930;-36
2023/07/06 08:37:44;;;;;;;;;;;23.70;74.10;;;;;;5082911;28;19912;-36
2023/07/06 08:40:14;;;;;;;;;;;23.70;74.10;;;;;;5082431;28;19918;-36
2023/07/06 08:42:42;;;;;;;;;;;23.70;74.00;;;;;;5097690;28;19967;-36
2023/07/06 08:45:08;;;;;;;;;;;23.70;74.00;;;;;;5082644;28;19934;-36
2023/07/06 08:47:34;;;;;;;;;;;23.70;73.90;;;;;;5064878;28;19912;-36
2023/07/06 08:50:03;;;;;;;;;;;23.70;73.80;;;;;;5082211;28;19920;-36
2023/07/06 08:52:29;;;;;;;;;;;23.70;73.90;;;;;;5082228;28;19928;-36
2023/07/06 08:54:55;;;;;;;;;;;23.70;73.90;;;;;;5074072;28;19908;-36
2023/07/06 08:57:22;;;;;;;;;;;23.70;73.90;;;;;;5064561;28;19912;-36
2023/07/06 08:59:51;;;;;;;;;;;23.70;74.00;;;;;;5098208;28;19912;-36
2023/07/06 09:02:19;;;;;;;;;;;23.70;74.10;;;;;;5082613;28;20008;-36
2023/07/06 09:04:46;;;;;;;;;;;23.70;74.20;;;;;;5082898;28;19908;-36
2023/07/06 09:07:13;;;;;;;;;;;23.70;74.20;;;;;;5081654;28;19972;-36
2023/07/06 09:09:39;;;;;;;;;;;23.70;74.20;;;;;;5082496;28;19948;-36
2023/07/06 09:12:10;;;;;;;;;;;23.70;74.20;;;;;;5082165;28;19920;-36
2023/07/06 09:14:35;;;;;;;;;;;23.70;74.30;;;;;;5064932;28;19912;-36
2023/07/06 09:17:01;;;;;;;;;;;23.70;74.30;;;;;;5063760;28;19935;-36
2023/07/06 09:19:27;;;;;;;;;;;23.70;74.20;;;;;;5063707;28;19919;-36
2023/07/06 09:21:54;;;;;;;;;;;23.70;74.20;;;;;;5083854;28;19912;-36
2023/07/06 09:24:27;;;;;;;;;;;23.70;74.20;;;;;;5089052;28;19913;-37
2023/07/06 09:26:53;;;;;;;;;;;23.70;74.10;;;;;;5086240;28;20298;-36
2023/07/06 09:29:20;;;;;;;;;;;23.70;74.20;;;;;;5086079;28;19955;-36
2023/07/06 09:31:47;;;;;;;;;;;23.70;74.20;;;;;;5085676;28;19916;-36
2023/07/06 09:34:26;;;;;;;;;;;23.70;74.10;;;;;;5101183;28;19920;-36
2023/07/06 09:36:52;;;;;;;;;;;23.70;74.20;;;;;;5067595;28;19915;-36
2023/07/06 09:39:18;;;;;;;;;;;23.70;74.20;;;;;;5085814;28;19912;-36
2023/07/06 09:41:44;;;;;;;;;;;23.70;74.20;;;;;;5086076;28;19912;-36
2023/07/06 09:44:13;;;;;;;;;;;23.70;74.30;;;;;;5085691;28;19912;-36
2023/07/06 09:46:39;;;;;;;;;;;23.60;74.20;;;;;;5067862;28;19944;-36
2023/07/06 09:49:10;;;;;;;;;;;23.60;74.30;;;;;;5100974;28;19923;-36
2023/07/06 09:51:38;;;;;;;;;;;23.60;74.30;;;;;;5101364;28;19913;-36
2023/07/06 09:54:11;;;;;;;;;;;23.60;74.30;;;;;;5085617;28;19920;-36
2023/07/06 09:56:38;;;;;;;;;;;23.60;74.40;;;;;;5088307;28;19912;-36
2023/07/06 09:59:03;;;;;;;;;;;23.60;74.40;;;;;;5084907;28;19952;-36
2023/07/06 10:01:33;;;;;;;;;;;23.60;74.40;;;;;;5085752;28;19965;-36
2023/07/06 10:04:05;;;;;;;;;;;23.60;74.30;;;;;;5085370;28;19912;-36
2023/07/06 10:06:37;;;;;;;;;;;23.60;74.30;;;;;;5085563;28;20006;-36
2023/07/06 10:09:07;;;;;;;;;;;23.60;74.30;;;;;;5085254;28;19959;-36
2023/07/06 10:11:50;;;;;;;;;;;23.60;74.30;;;;;;5085676;28;19912;-36
2023/07/06 10:14:51;;;;;;;;;;;23.60;74.20;;;;;;5085271;28;19920;-36
2023/07/06 10:17:37;;;;;;;;;;;23.60;74.30;;;;;;5062546;28;19958;-36
2023/07/06 10:20:09;;;;;;;;;;;23.60;74.30;;;;;;5061669;28;20471;-36
2023/07/06 10:22:58;;;;;;;;;;;23.60;74.40;;;;;;5062643;28;19909;-36
2023/07/06 10:25:24;;;;;;;;;;;23.60;74.50;;;;;;5062126;28;19972;-36
2023/07/06 10:28:00;;;;;;;;;;;23.60;74.50;;;;;;5061869;28;19951;-36
2023/07/06 10:30:31;;;;;;;;;;;23.60;74.60;;;;;;5056258;28;19963;-36
2023/07/06 10:32:57;;;;;;;;;;;23.60;74.60;;;;;;5060884;28;19927;-36
2023/07/06 10:35:30;;;;;;;;;;;23.60;74.70;;;;;;5062376;28;19924;-36
2023/07/06 10:37:57;;;;;;;;;;;23.60;74.70;;;;;;5061442;28;19908;-36
2023/07/06 10:40:24;;;;;;;;;;;23.50;74.70;;;;;;5061860;28;19913;-36
2023/07/06 10:43:27;;;;;;;;;;;23.50;74.70;;;;;;5061751;28;19912;-36
2023/07/06 10:45:56;;;;;;;;;;;23.60;74.60;;;;;;5019380;28;19910;-36
2023/07/06 10:48:25;;;;;;;;;;;23.60;74.60;;;;;;5006309;28;19920;-36
2023/07/06 10:50:51;;;;;;;;;;;23.50;74.50;;;;;;5015125;28;19914;-36
2023/07/06 10:53:22;;;;;;;;;;;23.50;74.50;;;;;;5002515;28;20045;-36
2023/07/06 10:56:02;;;;;;;;;;;23.50;74.60;;;;;;5002601;28;20393;-36
2023/07/06 10:58:29;;;;;;;;;;;23.50;74.50;;;;;;4996985;28;20434;-36
2023/07/06 11:00:58;;;;;;;;;;;23.50;74.70;;;;;;5018514;28;20321;-36
2023/07/06 11:03:28;;;;;;;;;;;23.50;74.70;;;;;;5002643;28;19914;-36
2023/07/06 11:06:08;;;;;;;;;;;23.50;74.70;;;;;;5002135;28;19937;-36
2023/07/06 11:08:53;;;;;;;;;;;23.50;74.70;;;;;;5002265;28;20394;-36
2023/07/06 11:11:20;;;;;;;;;;;23.50;74.70;;;;;;4995458;28;19913;-36
2023/07/06 11:13:50;;;;;;;;;;;23.50;74.80;;;;;;5002028;28;19952;-36
2023/07/06 11:16:22;;;;;;;;;;;23.50;74.80;;;;;;5002349;28;19920;-36
2023/07/06 11:18:48;;;;;;;;;;;23.50;74.80;;;;;;5021203;28;19914;-36
2023/07/06 11:21:24;;;;;;;;;;;23.50;74.80;;;;;;5066123;28;19939;-36
2023/07/06 11:23:54;;;;;;;;;;;23.50;74.80;;;;;;5065928;28;19908;-36
2023/07/06 11:26:38;;;;;;;;;;;23.50;74.90;;;;;;5092373;28;20007;-36
2023/07/06 11:29:08;;;;;;;;;;;23.50;74.80;;;;;;5083686;28;19909;-36
2023/07/06 11:31:34;;;;;;;;;;;23.50;74.70;;;;;;5083411;28;19979;-36
2023/07/06 11:34:13;;;;;;;;;;;23.50;74.70;;;;;;5083428;28;19920;-36
2023/07/06 11:36:40;;;;;;;;;;;23.50;74.70;;;;;;5083968;28;19916;-36
2023/07/06 11:39:08;;;;;;;;;;;23.50;74.80;;;;;;5065687;28;19923;-36
2023/07/06 11:41:40;;;;;;;;;;;23.50;74.70;;;;;;5083976;28;19946;-36
2023/07/06 11:44:18;;;;;;;;;;;23.50;74.80;;;;;;5083487;28;19988;-36
2023/07/06 11:46:44;;;;;;;;;;;23.50;74.70;;;;;;5083867;28;19954;-36
2023/07/06 11:49:16;;;;;;;;;;;23.50;74.80;;;;;;5083499;28;19934;-36
2023/07/06 11:51:43;;;;;;;;;;;23.50;74.90;;;;;;5083642;28;19975;-36
2023/07/06 11:54:19;;;;;;;;;;;23.50;74.90;;;;;;5098866;28;19988;-36
2023/07/06 11:57:13;;;;;;;;;;;23.50;74.90;;;;;;5067256;28;19912;-36
2023/07/06 11:59:38;;;;;;;;;;;23.50;75.00;;;;;;5083251;28;19912;-36
2023/07/06 12:02:16;;;;;;;;;;;23.40;75.00;;;;;;5065364;28;19912;-37
2023/07/06 12:04:45;;;;;;;;;;;23.40;75.00;;;;;;5083439;28;20388;-36
2023/07/06 12:07:25;;;;;;;;;;;23.40;74.90;;;;;;5085312;28;19913;-36
2023/07/06 12:09:52;;;;;;;;;;;23.40;74.90;;;;;;5085781;28;19914;-36
2023/07/06 12:12:20;;;;;;;;;;;23.40;74.90;;;;;;5082505;28;19912;-36
2023/07/06 12:14:46;;;;;;;;;;;23.40;74.90;;;;;;5065349;28;19991;-36
2023/07/06 12:17:12;;;;;;;;;;;23.40;74.80;;;;;;5085541;28;19912;-37
2023/07/06 12:19:41;;;;;;;;;;;23.40;74.90;;;;;;5083231;28;19929;-36
2023/07/06 12:22:18;;;;;;;;;;;23.40;74.80;;;;;;5083096;28;19974;-36
2023/07/06 12:24:43;;;;;;;;;;;23.40;74.80;;;;;;5083135;28;19915;-36
2023/07/06 12:27:16;;;;;;;;;;;23.40;75.00;;;;;;5083040;28;19916;-37
2023/07/06 12:29:42;;;;;;;;;;;23.50;75.00;;;;;;5083170;28;19958;-36
2023/07/06 12:32:16;;;;;;;;;;;23.40;75.00;;;;;;5082448;28;19954;-36
2023/07/06 12:34:44;;;;;;;;;;;23.50;75.20;;;;;;5083157;28;19920;-36
2023/07/06 12:37:16;;;;;;;;;;;23.40;75.10;;;;;;5095832;28;19916;-37
2023/07/06 12:39:43;;;;;;;;;;;23.50;75.30;;;;;;5082601;28;19919;-36
2023/07/06 12:42:10;;;;;;;;;;;23.50;75.50;;;;;;5082138;28;19985;-36
2023/07/06 12:44:37;;;;;;;;;;;23.50;75.50;;;;;;5098643;28;20014;-36
2023/07/06 12:47:22;;;;;;;;;;;23.50;75.50;;;;;;5082709;28;19912;-36
2023/07/06 12:49:50;;;;;;;;;;;23.50;75.60;;;;;;5082489;28;19916;-36
2023/07/06 12:52:15;;;;;;;;;;;23.50;75.50;;;;;;5081763;28;19912;-36
2023/07/06 12:54:52;;;;;;;;;;;23.50;75.60;;;;;;5082432;28;19958;-36
2023/07/06 12:57:22;;;;;;;;;;;23.50;75.40;;;;;;5081847;28;19998;-36
2023/07/06 12:59:49;;;;;;;;;;;23.50;75.30;;;;;;5082545;28;19916;-37
2023/07/06 13:02:16;;;;;;;;;;;23.50;75.40;;;;;;5082251;28;19965;-36
2023/07/06 13:04:43;;;;;;;;;;;23.50;75.40;;;;;;5083005;28;19919;-36
2023/07/06 13:07:09;;;;;;;;;;;23.50;75.40;;;;;;5082429;28;19912;-36
2023/07/06 13:09:34;;;;;;;;;;;23.50;75.60;;;;;;5082390;28;19971;-36
2023/07/06 13:12:07;;;;;;;;;;;23.50;75.60;;;;;;5082365;28;19934;-37
2023/07/06 13:14:33;;;;;;;;;;;23.50;75.70;;;;;;5083175;28;19927;-36
2023/07/06 13:17:04;;;;;;;;;;;23.50;75.80;;;;;;5082069;28;19924;-36
2023/07/06 13:19:33;;;;;;;;;;;23.50;75.90;;;;;;5081726;28;19913;-37
2023/07/06 13:21:58;;;;;;;;;;;23.60;76.20;;;;;;5082841;28;19948;-36
2023/07/06 13:24:24;;;;;;;;;;;23.60;76.20;;;;;;5065297;28;19935;-36
2023/07/06 13:26:50;;;;;;;;;;;23.60;76.30;;;;;;5081954;28;19912;-36
2023/07/06 13:29:16;;;;;;;;;;;23.60;76.20;;;;;;5082315;28;19912;-36
2023/07/06 13:31:45;;;;;;;;;;;23.60;76.30;;;;;;5082313;28;20073;-37
2023/07/06 13:34:11;;;;;;;;;;;23.60;76.30;;;;;;5097379;28;20654;-36
2023/07/06 13:36:37;;;;;;;;;;;23.60;76.20;;;;;;5082481;28;19938;-36
2023/07/06 13:39:06;;;;;;;;;;;23.60;76.10;;;;;;5082091;28;19956;-39
2023/07/06 13:41:35;;;;;;;;;;;23.60;76.20;;;;;;5082288;28;19912;-36
2023/07/06 13:44:01;;;;;;;;;;;23.70;76.30;;;;;;5081423;28;19912;-36
2023/07/06 13:46:27;;;;;;;;;;;23.70;76.40;;;;;;5081746;28;19916;-36
2023/07/06 13:48:53;;;;;;;;;;;23.70;76.30;;;;;;5081588;28;19947;-36
2023/07/06 13:51:19;;;;;;;;;;;23.70;76.30;;;;;;5082310;28;19912;-36
2023/07/06 13:53:50;;;;;;;;;;;23.70;76.40;;;;;;5082159;28;19920;-36
2023/07/06 13:56:16;;;;;;;;;;;23.80;76.50;;;;;;5074417;28;19919;-36
2023/07/06 13:58:43;;;;;;;;;;;23.80;76.70;;;;;;5082389;28;19913;-36
2023/07/06 14:01:12;;;;;;;;;;;23.80;76.60;;;;;;5081601;28;20396;-37
2023/07/06 14:03:38;;;;;;;;;;;23.80;76.70;;;;;;5064123;28;19908;-36
2023/07/06 14:06:04;;;;;;;;;;;23.80;76.60;;;;;;5081907;28;19912;-36
2023/07/06 14:08:32;;;;;;;;;;;23.80;76.70;;;;;;5084773;28;19955;-36
2023/07/06 14:10:58;;;;;;;;;;;23.90;76.90;;;;;;5085354;28;19914;-35
2023/07/06 14:13:24;;;;;;;;;;;23.90;76.90;;;;;;5085567;28;19955;-36
2023/07/06 14:15:50;;;;;;;;;;;23.90;76.90;;;;;;5085497;28;19972;-35
2023/07/06 14:18:16;;;;;;;;;;;24.00;77.10;;;;;;5075647;28;19934;-36
2023/07/06 14:20:44;;;;;;;;;;;24.00;77.20;;;;;;5085415;28;19912;-36
2023/07/06 14:23:13;;;;;;;;;;;24.00;77.30;;;;;;5085049;28;19953;-36
2023/07/06 14:25:39;;;;;;;;;;;24.00;77.30;;;;;;5084904;28;19924;-36
2023/07/06 14:28:05;;;;;;;;;;;24.00;77.50;;;;;;5085874;28;19993;-36